Terminal Aerodrome Forecast
Issued by NWS

Home | Current Version | Previous Version | Graphics & Text | Print | Product List | Glossary On
Versions: 1 2 3 4 5 6 7 8 9 10 11 12 13 14 15
591
FTUS43 KMPX 092327
TAFRNH
TAF
KRNH 092327Z 1000/1024 33012KT P6SM SKC
     FM100800 34008KT P6SM FEW250
     FM101700 34004KT P6SM SCT100 BKN200=

USA.gov is the U.S. government's official web portal to all federal, state and local government web resources and services.